sensor_id;sensor_type;location;lat;lon;timestamp;temperature;humidity
3868;DHT22;1949;48.152;11.528;2022-07-23T00:01:24;29.80;38.20
3868;DHT22;1949;48.152;11.528;2022-07-23T00:03:50;29.70;38.70
3868;DHT22;1949;48.152;11.528;2022-07-23T00:06:19;29.60;38.80
3868;DHT22;1949;48.152;11.528;2022-07-23T00:08:45;29.50;38.20
3868;DHT22;1949;48.152;11.528;2022-07-23T00:11:11;29.40;38.20
3868;DHT22;1949;48.152;11.528;2022-07-23T00:13:38;29.30;38.40
3868;DHT22;1949;48.152;11.528;2022-07-23T00:16:04;29.30;38.50
3868;DHT22;1949;48.152;11.528;2022-07-23T00:18:30;29.30;38.50
3868;DHT22;1949;48.152;11.528;2022-07-23T00:20:57;29.40;38.50
3868;DHT22;1949;48.152;11.528;2022-07-23T00:23:23;29.30;38.40
3868;DHT22;1949;48.152;11.528;2022-07-23T00:25:53;29.40;38.30
3868;DHT22;1949;48.152;11.528;2022-07-23T00:28:19;29.40;38.10
3868;DHT22;1949;48.152;11.528;2022-07-23T00:30:45;29.40;38.00
3868;DHT22;1949;48.152;11.528;2022-07-23T00:33:11;29.40;38.00
3868;DHT22;1949;48.152;11.528;2022-07-23T00:35:40;29.40;38.10
3868;DHT22;1949;48.152;11.528;2022-07-23T00:38:08;29.40;38.20
3868;DHT22;1949;48.152;11.528;2022-07-23T00:40:38;29.40;38.00
3868;DHT22;1949;48.152;11.528;2022-07-23T00:43:04;29.30;37.90
3868;DHT22;1949;48.152;11.528;2022-07-23T00:45:30;29.30;38.20
3868;DHT22;1949;48.152;11.528;2022-07-23T00:48:00;29.30;38.40
3868;DHT22;1949;48.152;11.528;2022-07-23T00:50:28;29.30;38.30
3868;DHT22;1949;48.152;11.528;2022-07-23T00:52:54;29.30;38.40
3868;DHT22;1949;48.152;11.528;2022-07-23T00:55:20;29.20;38.30
3868;DHT22;1949;48.152;11.528;2022-07-23T00:57:47;29.20;38.40
3868;DHT22;1949;48.152;11.528;2022-07-23T01:00:14;29.10;38.30
3868;DHT22;1949;48.152;11.528;2022-07-23T01:02:42;29.00;38.50
3868;DHT22;1949;48.152;11.528;2022-07-23T01:05:09;29.00;38.60
3868;DHT22;1949;48.152;11.528;2022-07-23T01:07:35;28.90;38.60
3868;DHT22;1949;48.152;11.528;2022-07-23T01:10:02;28.90;38.80
3868;DHT22;1949;48.152;11.528;2022-07-23T01:12:28;28.90;39.00
3868;DHT22;1949;48.152;11.528;2022-07-23T01:14:59;28.90;39.20
3868;DHT22;1949;48.152;11.528;2022-07-23T01:17:25;28.80;39.90
3868;DHT22;1949;48.152;11.528;2022-07-23T01:19:51;28.70;39.30
3868;DHT22;1949;48.152;11.528;2022-07-23T01:22:21;28.70;39.40
3868;DHT22;1949;48.152;11.528;2022-07-23T01:24:47;28.70;39.40
3868;DHT22;1949;48.152;11.528;2022-07-23T01:27:13;28.60;39.20
3868;DHT22;1949;48.152;11.528;2022-07-23T01:29:51;28.60;39.10
3868;DHT22;1949;48.152;11.528;2022-07-23T01:32:17;28.50;38.60
3868;DHT22;1949;48.152;11.528;2022-07-23T01:34:43;28.30;38.80
3868;DHT22;1949;48.152;11.528;2022-07-23T01:37:09;28.00;38.90
3868;DHT22;1949;48.152;11.528;2022-07-23T01:39:34;27.80;39.30
3868;DHT22;1949;48.152;11.528;2022-07-23T01:42:01;27.60;39.60
3868;DHT22;1949;48.152;11.528;2022-07-23T01:44:27;27.50;40.20
3868;DHT22;1949;48.152;11.528;2022-07-23T01:46:53;27.50;40.50
3868;DHT22;1949;48.152;11.528;2022-07-23T01:49:19;27.40;40.80
3868;DHT22;1949;48.152;11.528;2022-07-23T01:51:46;27.30;41.20
3868;DHT22;1949;48.152;11.528;2022-07-23T01:54:30;27.30;41.60
3868;DHT22;1949;48.152;11.528;2022-07-23T01:56:56;27.30;41.80
3868;DHT22;1949;48.152;11.528;2022-07-23T01:59:22;27.30;42.00
3868;DHT22;1949;48.152;11.528;2022-07-23T02:01:49;27.20;42.00
3868;DHT22;1949;48.152;11.528;2022-07-23T02:04:19;27.20;42.20
3868;DHT22;1949;48.152;11.528;2022-07-23T02:06:45;27.30;42.40
3868;DHT22;1949;48.152;11.528;2022-07-23T02:09:11;27.30;42.40
3868;DHT22;1949;48.152;11.528;2022-07-23T02:11:37;27.30;42.40
3868;DHT22;1949;48.152;11.528;2022-07-23T02:14:04;27.30;42.50
3868;DHT22;1949;48.152;11.528;2022-07-23T02:16:30;27.30;42.60
3868;DHT22;1949;48.152;11.528;2022-07-23T02:18:56;27.30;42.50
3868;DHT22;1949;48.152;11.528;2022-07-23T02:21:23;27.20;42.50
3868;DHT22;1949;48.152;11.528;2022-07-23T02:23:48;27.20;42.50
3868;DHT22;1949;48.152;11.528;2022-07-23T02:26:14;27.10;42.70
3868;DHT22;1949;48.152;11.528;2022-07-23T02:28:40;27.10;42.90
3868;DHT22;1949;48.152;11.528;2022-07-23T02:31:06;27.10;43.00
3868;DHT22;1949;48.152;11.528;2022-07-23T02:33:32;27.10;42.90
3868;DHT22;1949;48.152;11.528;2022-07-23T02:35:58;27.20;43.30
3868;DHT22;1949;48.152;11.528;2022-07-23T02:38:26;27.30;43.20
3868;DHT22;1949;48.152;11.528;2022-07-23T02:40:53;27.30;43.40
3868;DHT22;1949;48.152;11.528;2022-07-23T02:43:19;27.30;43.20
3868;DHT22;1949;48.152;11.528;2022-07-23T02:45:45;27.40;43.10
3868;DHT22;1949;48.152;11.528;2022-07-23T02:48:11;27.40;43.10
3868;DHT22;1949;48.152;11.528;2022-07-23T02:50:38;27.50;43.10
3868;DHT22;1949;48.152;11.528;2022-07-23T02:53:04;27.50;43.10
3868;DHT22;1949;48.152;11.528;2022-07-23T02:55:30;27.60;43.20
3868;DHT22;1949;48.152;11.528;2022-07-23T02:57:57;27.60;43.00
3868;DHT22;1949;48.152;11.528;2022-07-23T03:00:23;27.70;43.00
3868;DHT22;1949;48.152;11.528;2022-07-23T03:02:49;27.70;43.00
3868;DHT22;1949;48.152;11.528;2022-07-23T03:05:15;27.60;42.40
3868;DHT22;1949;48.152;11.528;2022-07-23T03:07:42;27.30;42.50
3868;DHT22;1949;48.152;11.528;2022-07-23T03:10:08;27.10;43.00
3868;DHT22;1949;48.152;11.528;2022-07-23T03:12:34;26.90;43.40
3868;DHT22;1949;48.152;11.528;2022-07-23T03:15:00;26.80;43.50
3868;DHT22;1949;48.152;11.528;2022-07-23T03:17:26;26.80;43.90
3868;DHT22;1949;48.152;11.528;2022-07-23T03:19:52;26.80;44.10
3868;DHT22;1949;48.152;11.528;2022-07-23T03:22:19;26.80;44.10
3868;DHT22;1949;48.152;11.528;2022-07-23T03:24:45;26.80;43.90
3868;DHT22;1949;48.152;11.528;2022-07-23T03:27:20;26.70;44.00
3868;DHT22;1949;48.152;11.528;2022-07-23T03:29:46;26.70;44.20
3868;DHT22;1949;48.152;11.528;2022-07-23T03:32:12;26.70;44.30
3868;DHT22;1949;48.152;11.528;2022-07-23T03:34:38;26.60;44.70
3868;DHT22;1949;48.152;11.528;2022-07-23T03:37:04;26.60;44.20
3868;DHT22;1949;48.152;11.528;2022-07-23T03:39:30;26.50;44.50
3868;DHT22;1949;48.152;11.528;2022-07-23T03:41:58;26.50;44.60
3868;DHT22;1949;48.152;11.528;2022-07-23T03:44:24;26.50;44.80
3868;DHT22;1949;48.152;11.528;2022-07-23T03:46:50;26.60;44.70
3868;DHT22;1949;48.152;11.528;2022-07-23T03:49:18;26.70;44.70
3868;DHT22;1949;48.152;11.528;2022-07-23T03:51:46;26.80;44.40
3868;DHT22;1949;48.152;11.528;2022-07-23T03:54:12;26.80;44.20
3868;DHT22;1949;48.152;11.528;2022-07-23T03:56:38;26.90;44.20
3868;DHT22;1949;48.152;11.528;2022-07-23T03:59:04;27.00;44.10
3868;DHT22;1949;48.152;11.528;2022-07-23T04:01:30;27.00;44.00
3868;DHT22;1949;48.152;11.528;2022-07-23T04:03:55;27.00;43.80
3868;DHT22;1949;48.152;11.528;2022-07-23T04:06:21;27.00;43.80
3868;DHT22;1949;48.152;11.528;2022-07-23T04:08:49;26.90;43.40
3868;DHT22;1949;48.152;11.528;2022-07-23T04:11:15;26.80;43.90
3868;DHT22;1949;48.152;11.528;2022-07-23T04:13:42;26.60;43.90
3868;DHT22;1949;48.152;11.528;2022-07-23T04:16:10;26.60;44.00
3868;DHT22;1949;48.152;11.528;2022-07-23T04:18:36;26.50;44.30
3868;DHT22;1949;48.152;11.528;2022-07-23T04:21:01;26.50;44.40
3868;DHT22;1949;48.152;11.528;2022-07-23T04:23:27;26.50;44.40
3868;DHT22;1949;48.152;11.528;2022-07-23T04:25:53;26.60;44.50
3868;DHT22;1949;48.152;11.528;2022-07-23T04:28:21;26.60;44.50
3868;DHT22;1949;48.152;11.528;2022-07-23T04:30:47;26.70;44.70
3868;DHT22;1949;48.152;11.528;2022-07-23T04:33:15;26.80;44.60
3868;DHT22;1949;48.152;11.528;2022-07-23T04:35:41;26.90;44.40
3868;DHT22;1949;48.152;11.528;2022-07-23T04:38:13;26.90;44.20
3868;DHT22;1949;48.152;11.528;2022-07-23T04:40:42;26.80;44.00
3868;DHT22;1949;48.152;11.528;2022-07-23T04:43:08;26.80;44.00
3868;DHT22;1949;48.152;11.528;2022-07-23T04:45:34;26.80;44.20
3868;DHT22;1949;48.152;11.528;2022-07-23T04:48:00;26.70;44.50
3868;DHT22;1949;48.152;11.528;2022-07-23T04:50:26;26.70;44.30
3868;DHT22;1949;48.152;11.528;2022-07-23T04:52:52;26.70;44.20
3868;DHT22;1949;48.152;11.528;2022-07-23T04:55:18;26.70;44.10
3868;DHT22;1949;48.152;11.528;2022-07-23T04:57:48;26.70;44.20
3868;DHT22;1949;48.152;11.528;2022-07-23T05:00:14;26.70;44.30
3868;DHT22;1949;48.152;11.528;2022-07-23T05:02:41;26.70;44.30
3868;DHT22;1949;48.152;11.528;2022-07-23T05:05:07;26.80;44.10
3868;DHT22;1949;48.152;11.528;2022-07-23T05:07:32;26.80;44.20
3868;DHT22;1949;48.152;11.528;2022-07-23T05:09:59;26.80;44.20
3868;DHT22;1949;48.152;11.528;2022-07-23T05:12:25;26.70;44.00
3868;DHT22;1949;48.152;11.528;2022-07-23T05:14:50;26.60;44.00
3868;DHT22;1949;48.152;11.528;2022-07-23T05:17:18;26.60;44.20
3868;DHT22;1949;48.152;11.528;2022-07-23T05:19:46;26.60;44.40
3868;DHT22;1949;48.152;11.528;2022-07-23T05:22:11;26.60;44.30
3868;DHT22;1949;48.152;11.528;2022-07-23T05:24:37;26.60;44.30
3868;DHT22;1949;48.152;11.528;2022-07-23T05:27:03;26.70;44.20
3868;DHT22;1949;48.152;11.528;2022-07-23T05:29:28;26.70;44.10
3868;DHT22;1949;48.152;11.528;2022-07-23T05:31:57;26.60;44.00
3868;DHT22;1949;48.152;11.528;2022-07-23T05:34:23;26.60;44.20
3868;DHT22;1949;48.152;11.528;2022-07-23T05:36:52;26.60;44.10
3868;DHT22;1949;48.152;11.528;2022-07-23T05:39:19;26.60;44.10
3868;DHT22;1949;48.152;11.528;2022-07-23T05:41:45;26.60;44.10
3868;DHT22;1949;48.152;11.528;2022-07-23T05:44:11;26.60;44.20
3868;DHT22;1949;48.152;11.528;2022-07-23T05:46:43;26.60;44.20
3868;DHT22;1949;48.152;11.528;2022-07-23T05:49:09;26.70;44.10
3868;DHT22;1949;48.152;11.528;2022-07-23T05:51:36;26.70;43.90
3868;DHT22;1949;48.152;11.528;2022-07-23T05:54:02;26.80;43.60
3868;DHT22;1949;48.152;11.528;2022-07-23T05:56:28;26.80;43.60
3868;DHT22;1949;48.152;11.528;2022-07-23T05:58:54;26.80;43.60
3868;DHT22;1949;48.152;11.528;2022-07-23T06:01:21;26.70;43.60
3868;DHT22;1949;48.152;11.528;2022-07-23T06:03:48;26.70;43.70
3868;DHT22;1949;48.152;11.528;2022-07-23T06:06:14;26.60;43.70
3868;DHT22;1949;48.152;11.528;2022-07-23T06:08:41;26.60;44.00
3868;DHT22;1949;48.152;11.528;2022-07-23T06:11:08;26.60;44.10
3868;DHT22;1949;48.152;11.528;2022-07-23T06:13:34;26.60;44.20
3868;DHT22;1949;48.152;11.528;2022-07-23T06:15:59;26.60;44.30
3868;DHT22;1949;48.152;11.528;2022-07-23T06:18:25;26.70;44.30
3868;DHT22;1949;48.152;11.528;2022-07-23T06:20:51;26.70;44.50
3868;DHT22;1949;48.152;11.528;2022-07-23T06:23:17;26.80;44.50
3868;DHT22;1949;48.152;11.528;2022-07-23T06:25:42;26.80;44.40
3868;DHT22;1949;48.152;11.528;2022-07-23T06:28:08;26.90;44.50
3868;DHT22;1949;48.152;11.528;2022-07-23T06:30:36;27.00;44.50
3868;DHT22;1949;48.152;11.528;2022-07-23T06:33:02;27.10;44.40
3868;DHT22;1949;48.152;11.528;2022-07-23T06:35:27;27.10;44.20
3868;DHT22;1949;48.152;11.528;2022-07-23T06:37:53;27.10;44.10
3868;DHT22;1949;48.152;11.528;2022-07-23T06:40:22;27.20;44.00
3868;DHT22;1949;48.152;11.528;2022-07-23T06:42:48;27.10;44.10
3868;DHT22;1949;48.152;11.528;2022-07-23T06:45:15;27.00;44.00
3868;DHT22;1949;48.152;11.528;2022-07-23T06:47:41;27.00;44.10
3868;DHT22;1949;48.152;11.528;2022-07-23T06:50:07;26.80;44.00
3868;DHT22;1949;48.152;11.528;2022-07-23T06:52:33;26.70;44.10
3868;DHT22;1949;48.152;11.528;2022-07-23T06:54:59;26.60;44.40
3868;DHT22;1949;48.152;11.528;2022-07-23T06:57:24;26.40;44.60
3868;DHT22;1949;48.152;11.528;2022-07-23T06:59:51;26.40;44.60
3868;DHT22;1949;48.152;11.528;2022-07-23T07:02:17;26.20;44.80
3868;DHT22;1949;48.152;11.528;2022-07-23T07:04:43;26.20;45.10
3868;DHT22;1949;48.152;11.528;2022-07-23T07:07:09;26.20;45.50
3868;DHT22;1949;48.152;11.528;2022-07-23T07:09:35;26.20;45.50
3868;DHT22;1949;48.152;11.528;2022-07-23T07:12:00;26.30;45.80
3868;DHT22;1949;48.152;11.528;2022-07-23T07:14:27;26.40;45.70
3868;DHT22;1949;48.152;11.528;2022-07-23T07:16:52;26.50;45.70
3868;DHT22;1949;48.152;11.528;2022-07-23T07:19:18;26.60;45.80
3868;DHT22;1949;48.152;11.528;2022-07-23T07:21:46;26.60;45.70
3868;DHT22;1949;48.152;11.528;2022-07-23T07:24:11;26.70;45.70
3868;DHT22;1949;48.152;11.528;2022-07-23T07:26:37;26.80;45.70
3868;DHT22;1949;48.152;11.528;2022-07-23T07:29:05;26.90;45.70
3868;DHT22;1949;48.152;11.528;2022-07-23T07:31:32;26.90;45.70
3868;DHT22;1949;48.152;11.528;2022-07-23T07:33:58;27.00;45.70
3868;DHT22;1949;48.152;11.528;2022-07-23T07:36:26;27.00;45.60
3868;DHT22;1949;48.152;11.528;2022-07-23T07:38:55;27.00;45.60
3868;DHT22;1949;48.152;11.528;2022-07-23T07:41:20;27.00;45.60
3868;DHT22;1949;48.152;11.528;2022-07-23T07:43:51;27.00;45.60
3868;DHT22;1949;48.152;11.528;2022-07-23T07:46:18;27.00;45.80
3868;DHT22;1949;48.152;11.528;2022-07-23T07:48:45;26.90;45.90
3868;DHT22;1949;48.152;11.528;2022-07-23T07:51:11;26.90;45.90
3868;DHT22;1949;48.152;11.528;2022-07-23T07:53:37;26.90;46.00
3868;DHT22;1949;48.152;11.528;2022-07-23T07:56:03;26.90;46.50
3868;DHT22;1949;48.152;11.528;2022-07-23T07:58:31;26.90;46.00
3868;DHT22;1949;48.152;11.528;2022-07-23T08:00:56;26.90;45.90
3868;DHT22;1949;48.152;11.528;2022-07-23T08:03:22;26.90;45.90
3868;DHT22;1949;48.152;11.528;2022-07-23T08:05:49;26.90;45.90
3868;DHT22;1949;48.152;11.528;2022-07-23T08:08:21;26.80;46.10
3868;DHT22;1949;48.152;11.528;2022-07-23T08:10:47;26.80;46.20
3868;DHT22;1949;48.152;11.528;2022-07-23T08:13:16;26.80;46.20
3868;DHT22;1949;48.152;11.528;2022-07-23T08:15:43;26.80;46.20
3868;DHT22;1949;48.152;11.528;2022-07-23T08:18:09;26.80;46.30
3868;DHT22;1949;48.152;11.528;2022-07-23T08:20:41;26.80;46.50
3868;DHT22;1949;48.152;11.528;2022-07-23T08:23:09;26.70;46.40
3868;DHT22;1949;48.152;11.528;2022-07-23T08:25:38;26.80;46.50
3868;DHT22;1949;48.152;11.528;2022-07-23T08:28:09;26.80;46.60
3868;DHT22;1949;48.152;11.528;2022-07-23T08:30:37;26.70;46.60
3868;DHT22;1949;48.152;11.528;2022-07-23T08:33:06;26.70;46.40
3868;DHT22;1949;48.152;11.528;2022-07-23T08:35:46;26.70;46.40
3868;DHT22;1949;48.152;11.528;2022-07-23T08:38:15;26.70;46.20
3868;DHT22;1949;48.152;11.528;2022-07-23T08:40:43;26.70;46.20
3868;DHT22;1949;48.152;11.528;2022-07-23T08:43:12;26.70;46.20
3868;DHT22;1949;48.152;11.528;2022-07-23T08:45:40;26.60;46.20
3868;DHT22;1949;48.152;11.528;2022-07-23T08:48:12;26.60;46.30
3868;DHT22;1949;48.152;11.528;2022-07-23T08:50:42;26.60;46.30
3868;DHT22;1949;48.152;11.528;2022-07-23T08:53:08;26.50;46.20
3868;DHT22;1949;48.152;11.528;2022-07-23T08:55:34;26.50;46.20
3868;DHT22;1949;48.152;11.528;2022-07-23T08:58:01;26.50;46.20
3868;DHT22;1949;48.152;11.528;2022-07-23T09:00:27;26.40;46.20
3868;DHT22;1949;48.152;11.528;2022-07-23T09:02:53;26.40;46.40
3868;DHT22;1949;48.152;11.528;2022-07-23T09:05:19;26.40;47.20
3868;DHT22;1949;48.152;11.528;2022-07-23T09:10:43;26.60;46.90
3868;DHT22;1949;48.152;11.528;2022-07-23T09:16:18;26.80;46.70
3868;DHT22;1949;48.152;11.528;2022-07-23T09:18:51;26.90;46.70
3868;DHT22;1949;48.152;11.528;2022-07-23T09:21:31;27.00;46.60
3868;DHT22;1949;48.152;11.528;2022-07-23T09:23:58;27.00;46.60
3868;DHT22;1949;48.152;11.528;2022-07-23T09:26:36;27.10;46.50
3868;DHT22;1949;48.152;11.528;2022-07-23T09:29:12;27.20;46.50
3868;DHT22;1949;48.152;11.528;2022-07-23T09:34:34;27.30;46.70
3868;DHT22;1949;48.152;11.528;2022-07-23T09:37:18;27.40;46.60
3868;DHT22;1949;48.152;11.528;2022-07-23T09:39:47;27.40;46.30
3868;DHT22;1949;48.152;11.528;2022-07-23T09:42:17;27.50;46.30
3868;DHT22;1949;48.152;11.528;2022-07-23T09:44:45;27.50;46.20
3868;DHT22;1949;48.152;11.528;2022-07-23T09:47:11;27.50;46.10
3868;DHT22;1949;48.152;11.528;2022-07-23T09:49:37;27.50;46.00
3868;DHT22;1949;48.152;11.528;2022-07-23T09:52:04;27.50;45.90
3868;DHT22;1949;48.152;11.528;2022-07-23T09:54:33;27.60;45.90
3868;DHT22;1949;48.152;11.528;2022-07-23T09:57:12;27.70;45.80
3868;DHT22;1949;48.152;11.528;2022-07-23T09:59:52;27.80;45.60
3868;DHT22;1949;48.152;11.528;2022-07-23T10:02:19;27.90;45.30
3868;DHT22;1949;48.152;11.528;2022-07-23T10:04:46;27.90;44.70
3868;DHT22;1949;48.152;11.528;2022-07-23T10:07:13;27.90;44.50
3868;DHT22;1949;48.152;11.528;2022-07-23T10:09:43;27.90;44.30
3868;DHT22;1949;48.152;11.528;2022-07-23T10:12:12;27.90;44.20
3868;DHT22;1949;48.152;11.528;2022-07-23T10:14:48;27.90;44.10
3868;DHT22;1949;48.152;11.528;2022-07-23T10:17:15;27.90;44.10
3868;DHT22;1949;48.152;11.528;2022-07-23T10:19:42;28.00;44.50
3868;DHT22;1949;48.152;11.528;2022-07-23T10:22:31;28.10;44.00
3868;DHT22;1949;48.152;11.528;2022-07-23T10:30:25;28.20;43.70
3868;DHT22;1949;48.152;11.528;2022-07-23T10:36:01;28.30;43.30
3868;DHT22;1949;48.152;11.528;2022-07-23T10:38:41;28.30;43.30
3868;DHT22;1949;48.152;11.528;2022-07-23T10:41:08;28.30;43.10
3868;DHT22;1949;48.152;11.528;2022-07-23T10:43:35;28.40;43.00
3868;DHT22;1949;48.152;11.528;2022-07-23T10:46:24;28.40;42.80
3868;DHT22;1949;48.152;11.528;2022-07-23T10:49:28;28.50;42.80
3868;DHT22;1949;48.152;11.528;2022-07-23T10:52:27;28.50;42.50
3868;DHT22;1949;48.152;11.528;2022-07-23T10:55:41;28.50;42.50
3868;DHT22;1949;48.152;11.528;2022-07-23T10:57:50;28.50;42.20
3868;DHT22;1949;48.152;11.528;2022-07-23T11:00:28;28.50;42.00
3868;DHT22;1949;48.152;11.528;2022-07-23T11:02:59;28.50;41.80
3868;DHT22;1949;48.152;11.528;2022-07-23T11:05:27;28.60;42.00
3868;DHT22;1949;48.152;11.528;2022-07-23T11:10:51;28.60;41.80
3868;DHT22;1949;48.152;11.528;2022-07-23T11:13:26;28.60;41.90
3868;DHT22;1949;48.152;11.528;2022-07-23T11:26:40;28.70;41.70
3868;DHT22;1949;48.152;11.528;2022-07-23T11:34:42;28.70;41.30
3868;DHT22;1949;48.152;11.528;2022-07-23T11:37:10;28.70;41.40
3868;DHT22;1949;48.152;11.528;2022-07-23T11:39:36;28.70;41.30
3868;DHT22;1949;48.152;11.528;2022-07-23T11:42:04;28.60;41.20
3868;DHT22;1949;48.152;11.528;2022-07-23T11:44:37;28.60;41.30
3868;DHT22;1949;48.152;11.528;2022-07-23T11:47:07;28.50;41.30
3868;DHT22;1949;48.152;11.528;2022-07-23T11:49:34;28.50;41.30
3868;DHT22;1949;48.152;11.528;2022-07-23T11:52:11;28.50;41.20
3868;DHT22;1949;48.152;11.528;2022-07-23T11:54:55;28.50;41.40
3868;DHT22;1949;48.152;11.528;2022-07-23T11:57:29;28.50;41.60
3868;DHT22;1949;48.152;11.528;2022-07-23T11:59:57;28.40;41.60
3868;DHT22;1949;48.152;11.528;2022-07-23T12:02:24;28.40;41.70
3868;DHT22;1949;48.152;11.528;2022-07-23T12:04:52;28.40;41.90
3868;DHT22;1949;48.152;11.528;2022-07-23T12:09:51;28.40;41.90
3868;DHT22;1949;48.152;11.528;2022-07-23T12:12:17;28.40;41.90
3868;DHT22;1949;48.152;11.528;2022-07-23T12:14:52;28.40;41.80
3868;DHT22;1949;48.152;11.528;2022-07-23T12:17:19;28.40;41.80
3868;DHT22;1949;48.152;11.528;2022-07-23T12:19:45;28.50;41.80
3868;DHT22;1949;48.152;11.528;2022-07-23T12:22:12;28.40;41.60
3868;DHT22;1949;48.152;11.528;2022-07-23T12:25:03;28.40;41.50
3868;DHT22;1949;48.152;11.528;2022-07-23T12:27:30;28.30;41.60
3868;DHT22;1949;48.152;11.528;2022-07-23T12:29:55;28.30;41.80
3868;DHT22;1949;48.152;11.528;2022-07-23T12:32:27;28.30;42.00
3868;DHT22;1949;48.152;11.528;2022-07-23T12:35:04;28.30;41.90
3868;DHT22;1949;48.152;11.528;2022-07-23T12:37:33;28.30;41.90
3868;DHT22;1949;48.152;11.528;2022-07-23T12:40:24;28.30;42.00
3868;DHT22;1949;48.152;11.528;2022-07-23T12:42:53;28.30;42.00
3868;DHT22;1949;48.152;11.528;2022-07-23T12:45:20;28.30;41.90
3868;DHT22;1949;48.152;11.528;2022-07-23T12:48:00;28.30;41.80
3868;DHT22;1949;48.152;11.528;2022-07-23T12:50:36;28.30;41.80
3868;DHT22;1949;48.152;11.528;2022-07-23T12:55:36;28.30;42.00
3868;DHT22;1949;48.152;11.528;2022-07-23T12:58:11;28.30;42.10
3868;DHT22;1949;48.152;11.528;2022-07-23T13:03:38;28.30;42.00
3868;DHT22;1949;48.152;11.528;2022-07-23T13:06:05;28.30;42.00
3868;DHT22;1949;48.152;11.528;2022-07-23T13:08:33;28.20;42.10
3868;DHT22;1949;48.152;11.528;2022-07-23T13:10:59;28.20;42.10
3868;DHT22;1949;48.152;11.528;2022-07-23T13:13:28;28.20;42.10
3868;DHT22;1949;48.152;11.528;2022-07-23T13:15:54;28.20;42.10
3868;DHT22;1949;48.152;11.528;2022-07-23T13:18:21;28.20;42.20
3868;DHT22;1949;48.152;11.528;2022-07-23T13:20:47;28.10;42.30
3868;DHT22;1949;48.152;11.528;2022-07-23T13:23:14;28.10;42.40
3868;DHT22;1949;48.152;11.528;2022-07-23T13:25:41;28.10;42.40
3868;DHT22;1949;48.152;11.528;2022-07-23T13:28:17;28.10;42.40
3868;DHT22;1949;48.152;11.528;2022-07-23T13:30:46;28.00;42.50
3868;DHT22;1949;48.152;11.528;2022-07-23T13:33:24;28.20;43.10
3868;DHT22;1949;48.152;11.528;2022-07-23T13:35:56;28.20;42.50
3868;DHT22;1949;48.152;11.528;2022-07-23T13:38:24;28.20;42.60
3868;DHT22;1949;48.152;11.528;2022-07-23T13:40:57;28.20;42.70
3868;DHT22;1949;48.152;11.528;2022-07-23T13:43:25;28.20;42.80
3868;DHT22;1949;48.152;11.528;2022-07-23T13:45:52;28.20;42.60
3868;DHT22;1949;48.152;11.528;2022-07-23T13:48:18;28.20;42.90
3868;DHT22;1949;48.152;11.528;2022-07-23T13:50:46;28.30;42.70
3868;DHT22;1949;48.152;11.528;2022-07-23T13:53:19;28.30;42.70
3868;DHT22;1949;48.152;11.528;2022-07-23T13:55:46;28.30;42.70
3868;DHT22;1949;48.152;11.528;2022-07-23T13:58:13;28.30;42.60
3868;DHT22;1949;48.152;11.528;2022-07-23T14:00:44;28.30;42.60
3868;DHT22;1949;48.152;11.528;2022-07-23T14:03:10;28.30;42.80
3868;DHT22;1949;48.152;11.528;2022-07-23T14:05:36;28.20;42.50
3868;DHT22;1949;48.152;11.528;2022-07-23T14:08:03;28.30;42.70
3868;DHT22;1949;48.152;11.528;2022-07-23T14:10:29;28.20;42.70
3868;DHT22;1949;48.152;11.528;2022-07-23T14:12:55;28.20;42.70
3868;DHT22;1949;48.152;11.528;2022-07-23T14:15:24;28.20;42.60
3868;DHT22;1949;48.152;11.528;2022-07-23T14:17:59;28.30;42.50
3868;DHT22;1949;48.152;11.528;2022-07-23T14:20:30;28.30;42.50
3868;DHT22;1949;48.152;11.528;2022-07-23T14:22:56;28.30;42.60
3868;DHT22;1949;48.152;11.528;2022-07-23T14:25:31;28.30;42.60
3868;DHT22;1949;48.152;11.528;2022-07-23T14:27:57;28.40;42.60
3868;DHT22;1949;48.152;11.528;2022-07-23T14:30:23;28.40;42.50
3868;DHT22;1949;48.152;11.528;2022-07-23T14:32:51;28.40;42.50
3868;DHT22;1949;48.152;11.528;2022-07-23T14:35:17;28.50;42.40
3868;DHT22;1949;48.152;11.528;2022-07-23T14:37:44;28.50;42.40
3868;DHT22;1949;48.152;11.528;2022-07-23T14:40:10;28.50;42.20
3868;DHT22;1949;48.152;11.528;2022-07-23T14:42:36;28.50;42.20
3868;DHT22;1949;48.152;11.528;2022-07-23T14:45:03;28.40;42.30
3868;DHT22;1949;48.152;11.528;2022-07-23T14:47:34;28.40;42.40
3868;DHT22;1949;48.152;11.528;2022-07-23T14:50:08;28.50;42.50
3868;DHT22;1949;48.152;11.528;2022-07-23T14:52:34;28.60;42.50
3868;DHT22;1949;48.152;11.528;2022-07-23T14:55:01;28.80;42.40
3868;DHT22;1949;48.152;11.528;2022-07-23T14:57:29;28.90;42.10
3868;DHT22;1949;48.152;11.528;2022-07-23T14:59:56;28.90;42.00
3868;DHT22;1949;48.152;11.528;2022-07-23T15:02:23;28.90;42.00
3868;DHT22;1949;48.152;11.528;2022-07-23T15:04:49;28.90;41.80
3868;DHT22;1949;48.152;11.528;2022-07-23T15:07:14;28.80;41.80
3868;DHT22;1949;48.152;11.528;2022-07-23T15:09:40;28.70;41.80
3868;DHT22;1949;48.152;11.528;2022-07-23T15:12:06;28.50;42.00
3868;DHT22;1949;48.152;11.528;2022-07-23T15:14:32;28.50;42.30
3868;DHT22;1949;48.152;11.528;2022-07-23T15:17:01;28.50;42.40
3868;DHT22;1949;48.152;11.528;2022-07-23T15:19:33;28.50;42.70
3868;DHT22;1949;48.152;11.528;2022-07-23T15:21:59;28.70;42.60
3868;DHT22;1949;48.152;11.528;2022-07-23T15:24:25;28.80;42.40
3868;DHT22;1949;48.152;11.528;2022-07-23T15:26:51;28.80;42.30
3868;DHT22;1949;48.152;11.528;2022-07-23T15:29:16;28.90;42.30
3868;DHT22;1949;48.152;11.528;2022-07-23T15:31:42;29.00;42.20
3868;DHT22;1949;48.152;11.528;2022-07-23T15:34:10;29.10;42.10
3868;DHT22;1949;48.152;11.528;2022-07-23T15:36:36;29.10;41.90
3868;DHT22;1949;48.152;11.528;2022-07-23T15:39:02;29.20;41.90
3868;DHT22;1949;48.152;11.528;2022-07-23T15:41:27;29.30;42.00
3868;DHT22;1949;48.152;11.528;2022-07-23T15:43:54;29.40;41.70
3868;DHT22;1949;48.152;11.528;2022-07-23T15:46:22;29.50;41.90
3868;DHT22;1949;48.152;11.528;2022-07-23T15:48:50;29.60;41.60
3868;DHT22;1949;48.152;11.528;2022-07-23T15:51:16;29.70;41.50
3868;DHT22;1949;48.152;11.528;2022-07-23T15:53:42;29.80;41.40
3868;DHT22;1949;48.152;11.528;2022-07-23T15:56:09;29.90;41.20
3868;DHT22;1949;48.152;11.528;2022-07-23T15:58:36;29.90;41.00
3868;DHT22;1949;48.152;11.528;2022-07-23T16:01:02;29.90;41.00
3868;DHT22;1949;48.152;11.528;2022-07-23T16:03:29;30.00;41.20
3868;DHT22;1949;48.152;11.528;2022-07-23T16:05:56;30.00;41.00
3868;DHT22;1949;48.152;11.528;2022-07-23T16:08:23;30.00;40.80
3868;DHT22;1949;48.152;11.528;2022-07-23T16:10:49;30.10;40.90
3868;DHT22;1949;48.152;11.528;2022-07-23T16:13:18;30.10;40.90
3868;DHT22;1949;48.152;11.528;2022-07-23T16:15:44;30.10;40.90
3868;DHT22;1949;48.152;11.528;2022-07-23T16:18:09;30.10;40.90
3868;DHT22;1949;48.152;11.528;2022-07-23T16:20:37;30.00;40.90
3868;DHT22;1949;48.152;11.528;2022-07-23T16:23:04;30.00;41.10
3868;DHT22;1949;48.152;11.528;2022-07-23T16:25:32;30.00;41.20
3868;DHT22;1949;48.152;11.528;2022-07-23T16:27:57;29.90;41.10
3868;DHT22;1949;48.152;11.528;2022-07-23T16:30:23;29.90;41.10
3868;DHT22;1949;48.152;11.528;2022-07-23T16:32:50;29.80;41.20
3868;DHT22;1949;48.152;11.528;2022-07-23T16:35:15;29.80;41.30